This is the latest recevied weather packets stored in our database for station/object DL8TF-13. If no packets are shown the sender has not sent any weather packets the latest 1 day(s).
| Time | Temp. | Humidity | Pressure | Rain* | Wind** | Luminosity | Snow |
|---|---|---|---|---|---|---|---|
| 1777781027 | 10.56° C | 65% | 984 hPa | - | - | - | - |
| 1777780427 | 10.56° C | 65% | 983 hPa | - | - | - | - |
| 1777779827 | 10.56° C | 67% | 984 hPa | - | - | - | - |
| 1777779226 | 10.56° C | 68% | 984 hPa | - | - | - | - |
| 1777778626 | 10.56° C | 67% | 983 hPa | - | - | - | - |
| 1777778026 | 11.11° C | 63% | 983 hPa | - | - | - | - |
| 1777777426 | 11.11° C | 62% | 983 hPa | - | - | - | - |
| 1777776826 | 11.67° C | 60% | 984 hPa | - | - | - | - |
| 1777776226 | 11.67° C | 62% | 984 hPa | - | - | - | - |
| 1777775626 | 11.67° C | 62% | 984 hPa | - | - | - | - |
| 1777775026 | 11.67° C | 62% | 984 hPa | - | - | - | - |
| 1777774426 | 11.67° C | 63% | 984 hPa | - | - | - | - |
| 1777773826 | 11.11° C | 63% | 984 hPa | - | - | - | - |
| 1777773226 | 11.67° C | 60% | 984 hPa | - | - | - | - |
| 1777772626 | 12.22° C | 61% | 984 hPa | - | - | - | - |
| 1777772026 | 12.78° C | 57% | 984 hPa | - | - | - | - |
| 1777771426 | 12.22° C | 59% | 984 hPa | - | - | - | - |
| 1777770826 | 12.22° C | 58% | 984 hPa | - | - | - | - |
| 1777770225 | 12.78° C | 57% | 984 hPa | - | - | - | - |
| 1777769625 | 12.22° C | 57% | 984 hPa | - | - | - | - |
| 1777769025 | 12.22° C | 57% | 984 hPa | - | - | - | - |
| 1777768425 | 12.22° C | 58% | 984 hPa | - | - | - | - |
| 1777767825 | 12.78° C | 55% | 984 hPa | - | - | - | - |
| 1777767225 | 13.33° C | 53% | 984 hPa | - | - | - | - |
| 1777766625 | 13.89° C | 52% | 984 hPa | - | - | - | - |
* Rain since midnight (hover to see other rain measurements)
** Current wind speed in m/s (hover to see current wind gust speed)